BAW1021 EDDB-LSZH
Flight info
| Callsign | BAW1021 |
|---|---|
| Flight time | N/A |
| Altitude | 30000 |
| Route | BBI DCT BKD DCT HAM DCT BMN DCT OSN/N0405F290 DCT PAD/N0402F300 DCT DOR DCT DUS DCT MHD DCT GIX/N0402F310 DCT NVO DCT KBO DCT COL DCT TAU DCT FFM/N0406F300 DCT FKS/N0402F310 DCT NUB/N0406F300 DCT DKB DCT STG/N0404F310 DCT MAH DCT OTT DCT RTT/N0407F300 DCT RUM DCT KPT DCT FHD DCT KLO |
| Aircraft | B463/M-SDFGIRWY/LB1 |
Departure
| Time | 2026-02-18 13:56 |
|---|---|
| Airport | Berlin Brandenburg Airport (EDDB) |
Arrival
| Time | N/A |
|---|---|
| Airport | Zürich Airport (LSZH) |
| Time | Latitude | Longitude | Altitude | Speed | Heading |
|---|---|---|---|---|---|
| 2026-02-18 13:50 | 52.35832 | 13.50872 | 154 ft | 9 kts | 69° |
| 2026-02-18 13:50 | 52.35863 | 13.51001 | 154 ft | 15 kts | 69° |
| 2026-02-18 13:50 | 52.35902 | 13.51168 | 154 ft | 16 kts | 69° |
| 2026-02-18 13:50 | 52.35942 | 13.51334 | 154 ft | 15 kts | 69° |
| 2026-02-18 13:51 | 52.35977 | 13.51478 | 154 ft | 12 kts | 69° |
| 2026-02-18 13:51 | 52.36004 | 13.51593 | 154 ft | 10 kts | 69° |
| 2026-02-18 13:51 | 52.36025 | 13.51682 | 154 ft | 7 kts | 69° |
| 2026-02-18 13:51 | 52.36041 | 13.51750 | 154 ft | 6 kts | 68° |
| 2026-02-18 13:52 | 52.36054 | 13.51801 | 154 ft | 4 kts | 68° |
| 2026-02-18 13:52 | 52.36062 | 13.51836 | 154 ft | 2 kts | 70° |
| 2026-02-18 13:52 | 52.36068 | 13.51865 | 154 ft | 3 kts | 71° |
| 2026-02-18 13:52 | 52.36086 | 13.51943 | 154 ft | 11 kts | 69° |
| 2026-02-18 13:53 | 52.36056 | 13.52147 | 154 ft | 11 kts | 159° |
| 2026-02-18 13:53 | 52.35951 | 13.52214 | 154 ft | 6 kts | 158° |
| 2026-02-18 13:54 | 52.35944 | 13.52219 | 154 ft | 0 kts | 158° |
| 2026-02-18 13:54 | 52.35940 | 13.52221 | 154 ft | 3 kts | 158° |
| 2026-02-18 13:54 | 52.35889 | 13.52255 | 154 ft | 13 kts | 158° |
| 2026-02-18 13:55 | 52.35809 | 13.52183 | 154 ft | 7 kts | 250° |
| 2026-02-18 13:55 | 52.35793 | 13.52103 | 154 ft | 10 kts | 250° |
| 2026-02-18 13:55 | 52.35713 | 13.51767 | 154 ft | 61 kts | 249° |
| 2026-02-18 13:55 | 52.35481 | 13.50793 | 154 ft | 120 kts | 249° |
| 2026-02-18 13:56 | 52.35151 | 13.49350 | 383 ft | 140 kts | 252° |
| 2026-02-18 13:56 | 52.34805 | 13.47791 | 828 ft | 153 kts | 253° |
| 2026-02-18 13:56 | 52.34425 | 13.45991 | 1176 ft | 184 kts | 253° |
| 2026-02-18 13:56 | 52.34003 | 13.43960 | 1957 ft | 186 kts | 252° |
| 2026-02-18 13:57 | 52.33689 | 13.39981 | 3314 ft | 195 kts | 299° |
| 2026-02-18 13:57 | 52.34779 | 13.38495 | 3483 ft | 219 kts | 342° |
| 2026-02-18 13:57 | 52.36102 | 13.38002 | 5107 ft | 165 kts | 339° |
| 2026-02-18 13:58 | 52.37237 | 13.37154 | 5365 ft | 203 kts | 333° |
| 2026-02-18 13:58 | 52.38570 | 13.36072 | 5711 ft | 223 kts | 334° |
| 2026-02-18 13:58 | 52.40038 | 13.34987 | 6184 ft | 239 kts | 338° |
| 2026-02-18 13:58 | 52.41697 | 13.34410 | 6727 ft | 252 kts | 358° |
| 2026-02-18 13:59 | 52.43484 | 13.34521 | 7346 ft | 261 kts | 0° |
| 2026-02-18 13:59 | 52.45333 | 13.34644 | 8000 ft | 269 kts | 0° |
| 2026-02-18 13:59 | 52.47240 | 13.34810 | 8522 ft | 281 kts | 1° |
| 2026-02-18 13:59 | 52.49171 | 13.34975 | 9490 ft | 273 kts | 357° |
| 2026-02-18 14:00 | 52.50980 | 13.34233 | 10289 ft | 269 kts | 331° |
| 2026-02-18 14:00 | 52.52590 | 13.32643 | 10949 ft | 271 kts | 330° |
| 2026-02-18 14:00 | 52.54233 | 13.31117 | 11587 ft | 272 kts | 330° |
| 2026-02-18 14:00 | 52.55880 | 13.29583 | 12210 ft | 273 kts | 330° |
| 2026-02-18 14:01 | 52.59185 | 13.26507 | 13367 ft | 276 kts | 330° |
| 2026-02-18 14:01 | 52.60890 | 13.24945 | 13912 ft | 277 kts | 332° |
| 2026-02-18 14:01 | 52.62610 | 13.23594 | 14366 ft | 278 kts | 336° |
| 2026-02-18 14:02 | 52.64412 | 13.22306 | 14798 ft | 279 kts | 334° |
| 2026-02-18 14:02 | 52.66092 | 13.20923 | 15231 ft | 280 kts | 333° |
| 2026-02-18 14:02 | 52.67856 | 13.19552 | 15654 ft | 281 kts | 334° |
| 2026-02-18 14:02 | 52.69526 | 13.17906 | 16031 ft | 282 kts | 316° |
| 2026-02-18 14:03 | 52.70558 | 13.15137 | 16370 ft | 290 kts | 294° |
| 2026-02-18 14:03 | 52.71189 | 13.12008 | 16721 ft | 292 kts | 294° |
| 2026-02-18 14:03 | 52.71858 | 13.08794 | 17083 ft | 293 kts | 293° |
| 2026-02-18 14:03 | 52.72491 | 13.05592 | 17418 ft | 294 kts | 292° |
| 2026-02-18 14:04 | 52.73110 | 13.02373 | 17736 ft | 295 kts | 292° |
| 2026-02-18 14:04 | 52.73722 | 12.99137 | 18045 ft | 296 kts | 292° |
| 2026-02-18 14:04 | 52.74326 | 12.95936 | 18340 ft | 297 kts | 292° |
| 2026-02-18 14:04 | 52.74937 | 12.92682 | 18619 ft | 297 kts | 292° |
| 2026-02-18 14:05 | 52.76157 | 12.86176 | 19199 ft | 297 kts | 292° |
| 2026-02-18 14:05 | 52.76764 | 12.82944 | 19476 ft | 297 kts | 292° |
| 2026-02-18 14:05 | 52.77384 | 12.79689 | 19750 ft | 297 kts | 292° |
| 2026-02-18 14:06 | 52.78065 | 12.76482 | 20016 ft | 296 kts | 294° |
| 2026-02-18 14:06 | 52.78761 | 12.73276 | 20276 ft | 297 kts | 293° |
| 2026-02-18 14:06 | 52.79418 | 12.70034 | 20547 ft | 297 kts | 293° |
| 2026-02-18 14:06 | 52.80102 | 12.66814 | 20777 ft | 298 kts | 294° |
| 2026-02-18 14:07 | 52.80787 | 12.63580 | 21017 ft | 299 kts | 293° |
| 2026-02-18 14:07 | 52.81453 | 12.60339 | 21265 ft | 299 kts | 293° |
| 2026-02-18 14:07 | 52.82141 | 12.57095 | 21525 ft | 299 kts | 293° |
| 2026-02-18 14:07 | 52.82817 | 12.53860 | 21767 ft | 300 kts | 292° |
| 2026-02-18 14:08 | 52.83496 | 12.50594 | 22011 ft | 301 kts | 293° |
| 2026-02-18 14:08 | 52.84178 | 12.47369 | 22250 ft | 301 kts | 292° |
| 2026-02-18 14:08 | 52.84858 | 12.44086 | 22503 ft | 302 kts | 292° |
| 2026-02-18 14:08 | 52.85548 | 12.40803 | 22774 ft | 302 kts | 293° |
| 2026-02-18 14:09 | 52.86922 | 12.34208 | 23288 ft | 304 kts | 292° |
| 2026-02-18 14:09 | 52.87619 | 12.30903 | 23541 ft | 304 kts | 292° |
| 2026-02-18 14:09 | 52.88307 | 12.27585 | 23753 ft | 305 kts | 292° |
| 2026-02-18 14:10 | 52.89000 | 12.24270 | 23945 ft | 306 kts | 292° |
| 2026-02-18 14:10 | 52.89702 | 12.20924 | 24124 ft | 307 kts | 291° |
| 2026-02-18 14:10 | 52.90403 | 12.17557 | 24230 ft | 310 kts | 291° |
| 2026-02-18 14:10 | 52.91103 | 12.14198 | 24414 ft | 311 kts | 291° |
| 2026-02-18 14:11 | 52.91808 | 12.10807 | 24610 ft | 312 kts | 291° |
| 2026-02-18 14:11 | 52.92519 | 12.07407 | 24804 ft | 312 kts | 291° |
| 2026-02-18 14:11 | 52.93225 | 12.03998 | 24981 ft | 313 kts | 291° |
| 2026-02-18 14:11 | 52.93909 | 12.00732 | 25176 ft | 314 kts | 291° |
| 2026-02-18 14:12 | 52.94620 | 11.97309 | 25341 ft | 315 kts | 291° |
| 2026-02-18 14:12 | 52.95325 | 11.93911 | 25514 ft | 315 kts | 291° |
| 2026-02-18 14:12 | 52.96046 | 11.90472 | 25689 ft | 316 kts | 291° |
| 2026-02-18 14:12 | 52.96758 | 11.87016 | 25857 ft | 317 kts | 291° |
| 2026-02-18 14:13 | 52.98204 | 11.80085 | 26181 ft | 319 kts | 291° |
| 2026-02-18 14:13 | 52.98943 | 11.76617 | 26343 ft | 319 kts | 294° |
| 2026-02-18 14:13 | 52.99957 | 11.73356 | 26425 ft | 320 kts | 301° |
| 2026-02-18 14:14 | 53.01168 | 11.70238 | 26673 ft | 315 kts | 302° |
| 2026-02-18 14:14 | 53.02340 | 11.67276 | 27010 ft | 313 kts | 303° |
| 2026-02-18 14:14 | 53.03560 | 11.64265 | 27116 ft | 314 kts | 303° |
| 2026-02-18 14:14 | 53.04787 | 11.61259 | 27285 ft | 315 kts | 303° |
| 2026-02-18 14:15 | 53.06021 | 11.58253 | 27434 ft | 315 kts | 303° |
| 2026-02-18 14:15 | 53.08427 | 11.52150 | 27729 ft | 316 kts | 302° |
| 2026-02-18 14:15 | 53.09476 | 11.48943 | 27849 ft | 318 kts | 289° |
| 2026-02-18 14:16 | 53.10400 | 11.41714 | 28078 ft | 319 kts | 292° |
| 2026-02-18 14:16 | 53.11304 | 11.38354 | 28198 ft | 319 kts | 297° |
| 2026-02-18 14:16 | 53.12454 | 11.35209 | 28307 ft | 319 kts | 307° |
| 2026-02-18 14:17 | 53.14973 | 11.29106 | 28535 ft | 320 kts | 303° |
| 2026-02-18 14:17 | 53.16225 | 11.26017 | 28549 ft | 323 kts | 303° |
| 2026-02-18 14:17 | 53.17510 | 11.22928 | 28664 ft | 324 kts | 304° |
| 2026-02-18 14:18 | 53.18805 | 11.19845 | 28789 ft | 325 kts | 304° |
| 2026-02-18 14:18 | 53.20109 | 11.16762 | 28915 ft | 325 kts | 304° |
| 2026-02-18 14:18 | 53.21535 | 11.13825 | 29020 ft | 327 kts | 310° |
| 2026-02-18 14:18 | 53.23066 | 11.11022 | 29232 ft | 325 kts | 308° |
| 2026-02-18 14:19 | 53.24482 | 11.08077 | 29372 ft | 325 kts | 308° |
| 2026-02-18 14:19 | 53.27448 | 11.02341 | 29570 ft | 327 kts | 308° |
| 2026-02-18 14:20 | 53.30380 | 10.96522 | 29822 ft | 327 kts | 309° |
| 2026-02-18 14:20 | 53.31849 | 10.93628 | 29954 ft | 327 kts | 308° |
| 2026-02-18 14:20 | 53.33312 | 10.90711 | 30003 ft | 329 kts | 308° |
| 2026-02-18 14:21 | 53.37284 | 10.82862 | 30022 ft | 335 kts | 308° |
| 2026-02-18 14:21 | 53.40323 | 10.76849 | 30038 ft | 341 kts | 308° |
| 2026-02-18 14:22 | 53.43406 | 10.70733 | 30045 ft | 346 kts | 308° |
| 2026-02-18 14:22 | 53.46536 | 10.64514 | 30046 ft | 352 kts | 308° |
| 2026-02-18 14:23 | 53.49714 | 10.58188 | 30050 ft | 357 kts | 308° |
| 2026-02-18 14:23 | 53.52914 | 10.51808 | 30047 ft | 358 kts | 308° |
| 2026-02-18 14:24 | 53.56138 | 10.45385 | 30052 ft | 361 kts | 308° |
| 2026-02-18 14:24 | 53.59376 | 10.38901 | 30027 ft | 362 kts | 308° |
| 2026-02-18 14:25 | 53.61746 | 10.31519 | 30054 ft | 361 kts | 291° |
| 2026-02-18 14:25 | 53.62594 | 10.27534 | 30058 ft | 362 kts | 290° |
| 2026-02-18 14:26 | 53.63810 | 10.19356 | 30065 ft | 366 kts | 276° |
| 2026-02-18 14:26 | 53.63915 | 10.10770 | 30059 ft | 368 kts | 271° |
| 2026-02-18 14:26 | 53.63374 | 10.06519 | 30075 ft | 380 kts | 251° |
| 2026-02-18 14:27 | 53.61868 | 10.02783 | 30093 ft | 393 kts | 234° |
| 2026-02-18 14:27 | 53.58146 | 9.95993 | 30066 ft | 395 kts | 235° |
| 2026-02-18 14:28 | 53.54857 | 9.88720 | 30052 ft | 388 kts | 243° |
| 2026-02-18 14:28 | 53.51608 | 9.81426 | 30053 ft | 387 kts | 243° |
| 2026-02-18 14:29 | 53.47027 | 9.70209 | 30049 ft | 390 kts | 239° |
| 2026-02-18 14:29 | 53.43739 | 9.62979 | 30031 ft | 387 kts | 242° |
| 2026-02-18 14:30 | 53.40445 | 9.55748 | 30032 ft | 388 kts | 241° |
| 2026-02-18 14:30 | 53.37220 | 9.48476 | 30034 ft | 391 kts | 238° |
| 2026-02-18 14:31 | 53.34024 | 9.41181 | 30026 ft | 389 kts | 238° |
| 2026-02-18 14:31 | 53.30791 | 9.33965 | 30029 ft | 386 kts | 240° |
| 2026-02-18 14:32 | 53.27522 | 9.26803 | 30032 ft | 386 kts | 241° |
| 2026-02-18 14:32 | 53.24296 | 9.19630 | 30031 ft | 386 kts | 238° |
| 2026-02-18 14:33 | 53.19469 | 9.08913 | 30040 ft | 385 kts | 239° |
| 2026-02-18 14:34 | 53.16273 | 9.01771 | 30044 ft | 385 kts | 238° |
| 2026-02-18 14:34 | 53.13098 | 8.94683 | 30045 ft | 384 kts | 239° |
| 2026-02-18 14:35 | 53.09870 | 8.87603 | 30044 ft | 384 kts | 238° |
| 2026-02-18 14:35 | 53.07924 | 8.84498 | 30061 ft | 395 kts | 224° |
| 2026-02-18 14:35 | 53.05799 | 8.81642 | 30058 ft | 386 kts | 233° |
| 2026-02-18 14:36 | 53.01795 | 8.75691 | 30065 ft | 396 kts | 219° |
| 2026-02-18 14:36 | 52.96927 | 8.71241 | 30055 ft | 403 kts | 213° |
| 2026-02-18 14:37 | 52.89208 | 8.65603 | 30037 ft | 410 kts | 205° |
| 2026-02-18 14:37 | 52.83781 | 8.62761 | 30037 ft | 406 kts | 209° |
| 2026-02-18 14:38 | 52.78351 | 8.59951 | 30032 ft | 409 kts | 205° |
| 2026-02-18 14:38 | 52.72992 | 8.57943 | 30018 ft | 414 kts | 200° |
| 2026-02-18 14:39 | 52.67645 | 8.54959 | 30001 ft | 402 kts | 212° |
| 2026-02-18 14:39 | 52.62513 | 8.51308 | 30008 ft | 402 kts | 212° |
| 2026-02-18 14:40 | 52.57127 | 8.48453 | 30015 ft | 407 kts | 207° |
| 2026-02-18 14:40 | 52.51813 | 8.45370 | 30012 ft | 407 kts | 207° |
| 2026-02-18 14:41 | 52.43705 | 8.41125 | 30003 ft | 408 kts | 206° |
| 2026-02-18 14:42 | 52.38296 | 8.38441 | 30013 ft | 409 kts | 206° |
| 2026-02-18 14:42 | 52.32838 | 8.35763 | 30006 ft | 410 kts | 206° |
| 2026-02-18 14:43 | 52.27237 | 8.34144 | 30013 ft | 432 kts | 186° |
| 2026-02-18 14:43 | 52.21197 | 8.35288 | 29981 ft | 439 kts | 180° |
| 2026-02-18 14:44 | 52.15144 | 8.36857 | 29984 ft | 441 kts | 179° |
| 2026-02-18 14:44 | 52.09031 | 8.38525 | 29989 ft | 443 kts | 180° |
| 2026-02-18 14:45 | 51.99941 | 8.40934 | 29983 ft | 452 kts | 172° |
| 2026-02-18 14:45 | 51.94040 | 8.44800 | 29966 ft | 457 kts | 169° |
| 2026-02-18 14:46 | 51.88053 | 8.48454 | 29967 ft | 462 kts | 165° |
| 2026-02-18 14:46 | 51.82059 | 8.52012 | 29963 ft | 463 kts | 164° |
| 2026-02-18 14:47 | 51.76062 | 8.55637 | 29977 ft | 461 kts | 167° |
| 2026-02-18 14:47 | 51.70069 | 8.59399 | 29945 ft | 459 kts | 171° |
| 2026-02-18 14:48 | 51.64067 | 8.63167 | 29941 ft | 459 kts | 173° |
| 2026-02-18 14:48 | 51.60997 | 8.63901 | 29956 ft | 435 kts | 192° |
| 2026-02-18 14:48 | 51.58117 | 8.63116 | 29965 ft | 409 kts | 211° |
| 2026-02-18 14:49 | 51.54008 | 8.57994 | 29985 ft | 361 kts | 248° |
| 2026-02-18 14:49 | 51.53051 | 8.54305 | 29990 ft | 350 kts | 259° |
| 2026-02-18 14:50 | 51.51823 | 8.46799 | 29954 ft | 349 kts | 263° |
| 2026-02-18 14:50 | 51.50824 | 8.39155 | 29897 ft | 350 kts | 264° |
| 2026-02-18 14:51 | 51.49898 | 8.31480 | 29929 ft | 350 kts | 264° |
| 2026-02-18 14:51 | 51.48995 | 8.23790 | 29932 ft | 351 kts | 264° |
| 2026-02-18 14:52 | 51.48099 | 8.16067 | 29932 ft | 352 kts | 264° |
| 2026-02-18 14:52 | 51.48068 | 8.08409 | 29957 ft | 345 kts | 291° |
| 2026-02-18 14:53 | 51.52937 | 7.99909 | 29963 ft | 364 kts | 323° |
| 2026-02-18 14:53 | 51.54840 | 7.97421 | 29979 ft | 348 kts | 302° |
| 2026-02-18 14:53 | 51.55830 | 7.93949 | 29992 ft | 343 kts | 281° |
| 2026-02-18 14:54 | 51.55823 | 7.90111 | 29990 ft | 349 kts | 264° |
| 2026-02-18 14:54 | 51.55287 | 7.86284 | 29959 ft | 352 kts | 261° |
| 2026-02-18 14:54 | 51.53995 | 7.78658 | 29908 ft | 355 kts | 258° |
| 2026-02-18 14:55 | 51.52148 | 7.71218 | 29897 ft | 361 kts | 253° |
| 2026-02-18 14:55 | 51.50129 | 7.63837 | 29900 ft | 362 kts | 252° |
| 2026-02-18 14:56 | 51.48090 | 7.56438 | 29905 ft | 363 kts | 252° |
| 2026-02-18 14:56 | 51.46042 | 7.49032 | 29907 ft | 363 kts | 252° |
| 2026-02-18 14:57 | 51.43713 | 7.37748 | 29922 ft | 354 kts | 262° |
| 2026-02-18 14:58 | 51.42590 | 7.30059 | 29916 ft | 355 kts | 260° |
| 2026-02-18 14:58 | 51.41235 | 7.22445 | 29897 ft | 356 kts | 257° |
| 2026-02-18 14:59 | 51.39209 | 7.15333 | 29882 ft | 359 kts | 251° |
| 2026-02-18 14:59 | 51.37220 | 7.08018 | 29873 ft | 359 kts | 249° |
| 2026-02-18 15:00 | 51.35032 | 7.00847 | 29874 ft | 355 kts | 254° |
| 2026-02-18 15:00 | 51.33094 | 6.93575 | 29885 ft | 357 kts | 250° |
| 2026-02-18 15:01 | 51.29979 | 6.82771 | 29882 ft | 357 kts | 250° |
| 2026-02-18 15:01 | 51.27872 | 6.75588 | 29877 ft | 357 kts | 250° |
| 2026-02-18 15:02 | 51.25760 | 6.68410 | 29883 ft | 357 kts | 250° |
| 2026-02-18 15:02 | 51.23687 | 6.61260 | 29881 ft | 357 kts | 250° |
| 2026-02-18 15:03 | 51.22261 | 6.53805 | 29883 ft | 350 kts | 270° |
| 2026-02-18 15:03 | 51.22111 | 6.50019 | 29874 ft | 351 kts | 257° |
| 2026-02-18 15:03 | 51.21005 | 6.46531 | 29892 ft | 362 kts | 235° |
| 2026-02-18 15:04 | 51.19164 | 6.43721 | 29887 ft | 368 kts | 229° |
| 2026-02-18 15:04 | 51.15326 | 6.38301 | 29830 ft | 369 kts | 228° |
| 2026-02-18 15:05 | 51.09484 | 6.30273 | 29850 ft | 370 kts | 227° |
| 2026-02-18 15:05 | 51.05580 | 6.24959 | 29830 ft | 370 kts | 227° |
| 2026-02-18 15:06 | 51.01554 | 6.19806 | 29824 ft | 380 kts | 216° |
| 2026-02-18 15:06 | 50.98970 | 6.18513 | 29851 ft | 402 kts | 195° |
| 2026-02-18 15:06 | 50.96111 | 6.18753 | 29858 ft | 424 kts | 175° |
| 2026-02-18 15:07 | 50.94230 | 6.19734 | 29863 ft | 436 kts | 164° |
| 2026-02-18 15:07 | 50.91561 | 6.22180 | 29859 ft | 451 kts | 150° |
| 2026-02-18 15:07 | 50.88584 | 6.26930 | 29856 ft | 467 kts | 131° |
| 2026-02-18 15:07 | 50.87415 | 6.29900 | 29853 ft | 475 kts | 120° |
| 2026-02-18 15:08 | 50.85071 | 6.39747 | 29846 ft | 480 kts | 112° |
| 2026-02-18 15:08 | 50.83079 | 6.49865 | 29842 ft | 485 kts | 104° |
| 2026-02-18 15:09 | 50.81229 | 6.65585 | 29849 ft | 488 kts | 96° |
| 2026-02-18 15:09 | 50.81342 | 6.70922 | 29861 ft | 486 kts | 77° |
| 2026-02-18 15:10 | 50.82087 | 6.76130 | 29862 ft | 485 kts | 73° |
| 2026-02-18 15:10 | 50.83937 | 6.86393 | 29856 ft | 487 kts | 73° |
| 2026-02-18 15:10 | 50.84571 | 6.91657 | 29851 ft | 489 kts | 84° |
| 2026-02-18 15:11 | 50.84796 | 6.97028 | 29853 ft | 490 kts | 83° |
| 2026-02-18 15:11 | 50.85698 | 7.07640 | 29863 ft | 490 kts | 85° |
| 2026-02-18 15:11 | 50.85738 | 7.12996 | 29857 ft | 492 kts | 96° |
| 2026-02-18 15:12 | 50.85010 | 7.18256 | 29872 ft | 490 kts | 110° |
| 2026-02-18 15:12 | 50.83200 | 7.28648 | 29868 ft | 492 kts | 102° |
| 2026-02-18 15:13 | 50.80844 | 7.44021 | 29921 ft | 491 kts | 103° |
| 2026-02-18 15:13 | 50.79954 | 7.49196 | 30213 ft | 483 kts | 110° |
| 2026-02-18 15:13 | 50.79120 | 7.54295 | 30533 ft | 476 kts | 103° |
| 2026-02-18 15:14 | 50.78066 | 7.59192 | 30730 ft | 467 kts | 120° |
| 2026-02-18 15:14 | 50.76583 | 7.63663 | 30810 ft | 464 kts | 122° |
| 2026-02-18 15:14 | 50.74797 | 7.67847 | 30838 ft | 454 kts | 140° |
| 2026-02-18 15:14 | 50.72421 | 7.70940 | 30872 ft | 435 kts | 159° |
| 2026-02-18 15:15 | 50.69747 | 7.72710 | 30884 ft | 412 kts | 178° |
| 2026-02-18 15:15 | 50.66983 | 7.73251 | 30900 ft | 398 kts | 187° |
| 2026-02-18 15:15 | 50.64187 | 7.74068 | 30661 ft | 426 kts | 171° |
| 2026-02-18 15:15 | 50.61374 | 7.75883 | 30323 ft | 446 kts | 163° |
| 2026-02-18 15:16 | 50.58591 | 7.78095 | 30463 ft | 448 kts | 160° |
| 2026-02-18 15:16 | 50.55917 | 7.80688 | 30538 ft | 457 kts | 150° |
| 2026-02-18 15:16 | 50.50935 | 7.86798 | 30789 ft | 455 kts | 152° |
| 2026-02-18 15:17 | 50.43328 | 7.95699 | 30449 ft | 450 kts | 152° |
| 2026-02-18 15:17 | 50.40728 | 7.98298 | 29962 ft | 439 kts | 156° |
| 2026-02-18 15:18 | 50.38229 | 8.01070 | 29384 ft | 440 kts | 149° |
| 2026-02-18 15:18 | 50.35845 | 8.03904 | 28788 ft | 434 kts | 150° |
| 2026-02-18 15:18 | 50.33404 | 8.06746 | 28224 ft | 428 kts | 150° |
| 2026-02-18 15:18 | 50.31014 | 8.09476 | 27680 ft | 424 kts | 149° |
| 2026-02-18 15:19 | 50.28725 | 8.12369 | 27151 ft | 421 kts | 147° |
| 2026-02-18 15:19 | 50.26776 | 8.14854 | 26696 ft | 417 kts | 146° |
| 2026-02-18 15:19 | 50.24556 | 8.17746 | 26174 ft | 413 kts | 146° |
| 2026-02-18 15:19 | 50.22407 | 8.20705 | 25662 ft | 413 kts | 139° |
| 2026-02-18 15:20 | 50.20533 | 8.24104 | 25159 ft | 412 kts | 130° |
| 2026-02-18 15:20 | 50.19076 | 8.27700 | 24684 ft | 411 kts | 122° |
| 2026-02-18 15:20 | 50.17701 | 8.31591 | 24199 ft | 408 kts | 120° |
| 2026-02-18 15:20 | 50.16295 | 8.35410 | 23730 ft | 404 kts | 124° |
| 2026-02-18 15:21 | 50.13421 | 8.42837 | 22660 ft | 397 kts | 121° |
| 2026-02-18 15:21 | 50.11998 | 8.46495 | 22116 ft | 393 kts | 125° |
| 2026-02-18 15:21 | 50.10279 | 8.49701 | 21560 ft | 381 kts | 145° |
| 2026-02-18 15:22 | 50.08166 | 8.52102 | 21044 ft | 373 kts | 151° |
| 2026-02-18 15:22 | 50.06099 | 8.54287 | 20549 ft | 371 kts | 151° |
| 2026-02-18 15:22 | 50.03951 | 8.56493 | 20044 ft | 371 kts | 152° |
| 2026-02-18 15:22 | 50.01815 | 8.58638 | 19557 ft | 370 kts | 153° |
| 2026-02-18 15:23 | 49.99516 | 8.60240 | 19074 ft | 356 kts | 175° |
| 2026-02-18 15:23 | 49.97124 | 8.60339 | 18616 ft | 337 kts | 198° |
| 2026-02-18 15:23 | 49.94877 | 8.59427 | 18151 ft | 331 kts | 202° |
| 2026-02-18 15:23 | 49.92619 | 8.58655 | 17616 ft | 335 kts | 196° |
| 2026-02-18 15:24 | 49.90334 | 8.57989 | 17056 ft | 332 kts | 200° |
| 2026-02-18 15:24 | 49.88093 | 8.57111 | 16524 ft | 332 kts | 198° |
| 2026-02-18 15:24 | 49.85827 | 8.56726 | 15999 ft | 341 kts | 181° |
| 2026-02-18 15:24 | 49.83518 | 8.57738 | 15505 ft | 353 kts | 157° |
| 2026-02-18 15:25 | 49.80114 | 8.63106 | 14556 ft | 362 kts | 127° |
| 2026-02-18 15:25 | 49.78718 | 8.66338 | 14093 ft | 361 kts | 126° |
| 2026-02-18 15:25 | 49.77601 | 8.69823 | 13607 ft | 363 kts | 111° |
| 2026-02-18 15:26 | 49.76992 | 8.73600 | 13066 ft | 363 kts | 98° |
| 2026-02-18 15:26 | 49.76724 | 8.77460 | 12532 ft | 361 kts | 97° |
| 2026-02-18 15:26 | 49.76320 | 8.81273 | 12016 ft | 358 kts | 102° |
| 2026-02-18 15:26 | 49.75886 | 8.85055 | 11502 ft | 355 kts | 98° |
| 2026-02-18 15:27 | 49.75594 | 8.88826 | 10992 ft | 352 kts | 99° |
| 2026-02-18 15:27 | 49.75130 | 8.92530 | 10496 ft | 349 kts | 102° |
| 2026-02-18 15:27 | 49.74778 | 8.96209 | 10152 ft | 341 kts | 97° |
| 2026-02-18 15:27 | 49.74465 | 8.99733 | 10000 ft | 328 kts | 101° |
| 2026-02-18 15:28 | 49.74026 | 9.03115 | 9927 ft | 314 kts | 100° |
| 2026-02-18 15:28 | 49.73755 | 9.06388 | 9884 ft | 300 kts | 97° |
| 2026-02-18 15:28 | 49.73438 | 9.09506 | 9866 ft | 287 kts | 101° |
| 2026-02-18 15:28 | 49.72951 | 9.12423 | 9855 ft | 274 kts | 116° |
| 2026-02-18 15:29 | 49.70389 | 9.16263 | 9853 ft | 248 kts | 152° |
| 2026-02-18 15:29 | 49.68864 | 9.17374 | 9853 ft | 237 kts | 159° |
| 2026-02-18 15:29 | 49.67345 | 9.18245 | 9853 ft | 229 kts | 162° |
| 2026-02-18 15:30 | 49.65833 | 9.18955 | 9802 ft | 222 kts | 166° |
| 2026-02-18 15:30 | 49.64329 | 9.19551 | 9560 ft | 225 kts | 168° |
| 2026-02-18 15:30 | 49.62783 | 9.20081 | 9286 ft | 229 kts | 169° |
| 2026-02-18 15:30 | 49.61208 | 9.20580 | 9009 ft | 233 kts | 170° |
| 2026-02-18 15:31 | 49.59606 | 9.21069 | 8755 ft | 236 kts | 172° |
| 2026-02-18 15:31 | 49.57976 | 9.21387 | 8506 ft | 237 kts | 186° |
| 2026-02-18 15:31 | 49.56439 | 9.20594 | 8260 ft | 235 kts | 208° |
| 2026-02-18 15:31 | 49.54931 | 9.19587 | 7985 ft | 238 kts | 201° |
| 2026-02-18 15:32 | 49.53390 | 9.18646 | 7709 ft | 240 kts | 205° |
| 2026-02-18 15:32 | 49.51879 | 9.17528 | 7436 ft | 242 kts | 208° |
| 2026-02-18 15:32 | 49.50401 | 9.16276 | 7165 ft | 244 kts | 210° |
| 2026-02-18 15:32 | 49.48948 | 9.14928 | 6898 ft | 245 kts | 211° |
| 2026-02-18 15:33 | 49.46032 | 9.12099 | 6371 ft | 250 kts | 212° |
| 2026-02-18 15:33 | 49.44561 | 9.10646 | 6117 ft | 253 kts | 212° |
| 2026-02-18 15:33 | 49.43095 | 9.09182 | 5984 ft | 249 kts | 212° |
| 2026-02-18 15:34 | 49.41675 | 9.07721 | 5932 ft | 245 kts | 213° |
| 2026-02-18 15:34 | 49.40263 | 9.06257 | 5902 ft | 241 kts | 212° |
| 2026-02-18 15:34 | 49.38880 | 9.04813 | 5876 ft | 241 kts | 212° |
| 2026-02-18 15:34 | 49.37476 | 9.03331 | 5871 ft | 250 kts | 213° |
| 2026-02-18 15:35 | 49.36004 | 9.01785 | 5884 ft | 261 kts | 213° |
| 2026-02-18 15:35 | 49.34471 | 9.00180 | 5893 ft | 273 kts | 213° |
| 2026-02-18 15:35 | 49.32898 | 8.98552 | 5899 ft | 276 kts | 212° |
| 2026-02-18 15:35 | 49.31286 | 8.96871 | 5929 ft | 276 kts | 213° |
| 2026-02-18 15:36 | 49.29705 | 8.95218 | 5980 ft | 275 kts | 213° |
| 2026-02-18 15:36 | 49.28123 | 8.93558 | 5994 ft | 276 kts | 213° |
| 2026-02-18 15:36 | 49.26539 | 8.91897 | 5992 ft | 276 kts | 211° |
| 2026-02-18 15:36 | 49.24834 | 8.90533 | 5993 ft | 277 kts | 204° |
| 2026-02-18 15:37 | 49.21173 | 8.88913 | 5997 ft | 275 kts | 184° |
| 2026-02-18 15:37 | 49.19803 | 8.88754 | 5998 ft | 276 kts | 184° |
| 2026-02-18 15:37 | 49.17888 | 8.88520 | 6002 ft | 276 kts | 184° |
| 2026-02-18 15:38 | 49.15994 | 8.88325 | 5998 ft | 276 kts | 183° |
| 2026-02-18 15:38 | 49.14077 | 8.88150 | 5998 ft | 276 kts | 183° |
| 2026-02-18 15:38 | 49.12163 | 8.87991 | 5992 ft | 276 kts | 182° |
| 2026-02-18 15:38 | 49.10241 | 8.87834 | 5986 ft | 276 kts | 182° |
| 2026-02-18 15:39 | 49.08317 | 8.87681 | 5969 ft | 277 kts | 182° |
| 2026-02-18 15:39 | 49.06394 | 8.87532 | 5924 ft | 279 kts | 182° |
| 2026-02-18 15:39 | 49.04467 | 8.87385 | 5769 ft | 284 kts | 182° |
| 2026-02-18 15:39 | 49.02490 | 8.87227 | 5624 ft | 286 kts | 182° |
| 2026-02-18 15:40 | 49.00512 | 8.87445 | 5456 ft | 287 kts | 166° |
| 2026-02-18 15:40 | 48.98597 | 8.88268 | 5385 ft | 285 kts | 164° |
| 2026-02-18 15:40 | 48.96691 | 8.89082 | 5331 ft | 283 kts | 165° |
| 2026-02-18 15:40 | 48.94798 | 8.89911 | 5248 ft | 284 kts | 164° |
| 2026-02-18 15:41 | 48.91011 | 8.91684 | 5081 ft | 285 kts | 163° |
| 2026-02-18 15:41 | 48.89122 | 8.92594 | 5000 ft | 284 kts | 161° |
| 2026-02-18 15:41 | 48.87572 | 8.94017 | 4896 ft | 287 kts | 136° |
| 2026-02-18 15:42 | 48.86581 | 8.96584 | 4797 ft | 293 kts | 108° |
| 2026-02-18 15:42 | 48.86464 | 8.99665 | 4699 ft | 297 kts | 84° |
| 2026-02-18 15:42 | 48.86838 | 9.02755 | 4640 ft | 297 kts | 82° |
| 2026-02-18 15:42 | 48.87222 | 9.05829 | 4588 ft | 297 kts | 81° |
| 2026-02-18 15:43 | 48.87649 | 9.08901 | 4509 ft | 296 kts | 80° |
| 2026-02-18 15:43 | 48.88099 | 9.11953 | 4431 ft | 296 kts | 79° |
| 2026-02-18 15:43 | 48.88560 | 9.15006 | 4359 ft | 296 kts | 79° |
| 2026-02-18 15:43 | 48.89024 | 9.18048 | 4295 ft | 295 kts | 80° |
| 2026-02-18 15:44 | 48.89241 | 9.21078 | 4209 ft | 291 kts | 92° |
| 2026-02-18 15:44 | 48.89060 | 9.24114 | 4104 ft | 288 kts | 109° |